FW1130 Coquitlam CA current weather conditions

sailwx.info

Wind from 246

Air temperature 17.2° C
Dewpoint 11.9° C

Last reported at 2020-Jul-08 04:03 UTC.
Time now 2020-Jul-08 04:49 UTC

Location: N 49°14' W 122°52'.
View on Google Maps.

See reports from other nearby stations

  
Tides and Currents Weather Stations Pressure Air Temp Water Temp Dewpoint Dewpoint Depression Visibility Wind Speed Wind Dir Waves Ship Positions
date/time (UTC)wind fromknots sea level pressurealtimeterstation pressurevisibilityair tempwater tempwave heightnotes
2020-Jul-08 04:03 246 17.2
2020-Jul-08 03:58 246 17.2
2020-Jul-08 03:48 246 17.2
2020-Jul-08 03:43 246 17.2
2020-Jul-08 03:38 246 17.2
2020-Jul-08 03:33 245 17.2
2020-Jul-08 03:28 236 17.2
2020-Jul-08 03:23 236 17.2
2020-Jul-08 03:18 236 17.2
2020-Jul-08 03:13 236 0 gusting 2 17.2
2020-Jul-08 03:08 236 0 gusting 3 17.2
2020-Jul-08 03:03 224 0 gusting 3 17.2
2020-Jul-08 02:58 165 17.8
2020-Jul-08 02:53 241 1 gusting 5 17.8
2020-Jul-08 02:48 249 0 gusting 5 17.8
2020-Jul-08 02:43 209 0 gusting 3 17.8
2020-Jul-08 02:38 241 284 gusting 284 17.8
2020-Jul-08 02:33 191 0 gusting 2 17.8
2020-Jul-08 02:28 191 17.8
2020-Jul-08 02:23 195 0 gusting 2 17.8
2020-Jul-08 02:18 253 0 gusting 3 17.8
2020-Jul-08 02:13 242 1 gusting 3 18.3
2020-Jul-08 02:08 219 1 gusting 2 18.3
2020-Jul-08 02:03 216 1 gusting 3 18.3
2020-Jul-08 01:53 177 0 gusting 2 18.3
2020-Jul-08 01:48 253 18.3
2020-Jul-08 01:43 207 0 gusting 3 18.3
2020-Jul-08 01:38 231 0 gusting 4 18.3
2020-Jul-08 01:33 183 1 gusting 4 18.3
2020-Jul-08 01:28 224 18.3
2020-Jul-08 01:23 231 0 gusting 5 18.3
2020-Jul-08 01:18 257 0 gusting 4 18.3
2020-Jul-08 01:13 208 1 gusting 5 18.3
2020-Jul-08 01:08 197 2 gusting 6 18.3
2020-Jul-08 01:03 174 1 gusting 6 18.3
2020-Jul-08 00:58 274 1 gusting 6 18.3
2020-Jul-08 00:53 237 1 gusting 5 18.9
2020-Jul-08 00:48 251 0 gusting 4 18.9
2020-Jul-08 00:43 209 1 gusting 6 18.9
2020-Jul-08 00:38 192 1 gusting 6 18.3
2020-Jul-08 00:33 264 0 gusting 6 18.3
2020-Jul-08 00:28 176 1 gusting 6 18.9
2020-Jul-08 00:23 249 2 gusting 6 18.9
2020-Jul-08 00:18 248 2 gusting 5 18.9
2020-Jul-08 00:13 195 1 gusting 6 19.4
2020-Jul-08 00:08 204 1 gusting 6 19.4
2020-Jul-08 00:03 235 0 gusting 6 20.0
2020-Jul-07 23:58 181 2 gusting 6 20.6
2020-Jul-07 23:53 268 0 gusting 5 20.0
2020-Jul-07 23:48 248 3 gusting 6 20.0
2020-Jul-07 23:43 235 0 gusting 6 19.4
2020-Jul-07 23:33 162 3 gusting 8 18.9
2020-Jul-07 23:28 222 1 gusting 6 18.9
2020-Jul-07 23:23 185 2 gusting 6 19.4
2020-Jul-07 23:18 251 1 gusting 6 19.4
2020-Jul-07 23:13 212 2 gusting 6 19.4
2020-Jul-07 23:08 212 1 gusting 6 19.4
2020-Jul-07 23:03 181 1 gusting 6 19.4
2020-Jul-07 22:58 212 0 gusting 4 19.4
2020-Jul-07 22:53 217 1 gusting 5 20.0
2020-Jul-07 22:48 207 20.0
2020-Jul-07 22:43 164 2 gusting 6 19.4
2020-Jul-07 22:33 172 2 gusting 6 18.9
2020-Jul-07 22:28 237 1 gusting 5 18.9
2020-Jul-07 22:23 244 2 gusting 5 19.4
2020-Jul-07 22:18 247 0 gusting 6 19.4
2020-Jul-07 22:13 237 0 gusting 6 18.9
2020-Jul-07 22:08 224 2 gusting 6 18.3
2020-Jul-07 22:03 206 2 gusting 6 18.3
2020-Jul-07 21:58 228 2 gusting 5 18.3
2020-Jul-07 21:53 273 1 gusting 5 18.3
2020-Jul-07 21:48 236 2 gusting 4 18.3
2020-Jul-07 21:43 239 0 gusting 4 18.3
2020-Jul-07 21:38 214 1 gusting 4 18.3
2020-Jul-07 21:33 189 1 gusting 4 18.3
2020-Jul-07 21:29 237 18.9
2020-Jul-07 20:58 196 17.8
2020-Jul-07 20:53 160 1 gusting 6 17.8
2020-Jul-07 20:48 085 0 gusting 5 17.8
2020-Jul-07 20:43 108 17.8
2020-Jul-07 20:38 087 2 gusting 6 17.8
2020-Jul-07 20:33 110 17.8
2020-Jul-07 20:28 110 1 gusting 5 17.2
2020-Jul-07 20:23 081 1 gusting 5 17.2
2020-Jul-07 20:18 076 17.2
2020-Jul-07 17:13 083 1 gusting 6 16.1
2020-Jul-07 17:08 095 0 gusting 6 16.1
2020-Jul-07 17:04 104 1 gusting 4 16.1
2020-Jul-07 16:58 072 0 gusting 3 15.6
2020-Jul-07 16:48 084 3 gusting 6 15.6
2020-Jul-07 16:43 070 1 gusting 4 15.6
2020-Jul-07 16:33 089 3 gusting 5 15.0
2020-Jul-07 16:28 076 2 gusting 5 15.0
2020-Jul-07 16:23 068 15.0
2020-Jul-07 16:18 061 2 gusting 4 15.0
2020-Jul-07 16:13 097 0 gusting 3 15.0
2020-Jul-07 16:08 077 15.0
2020-Jul-07 13:18 075 0 gusting 2 13.3
2020-Jul-07 13:13 081 13.3
2020-Jul-07 13:08 081 13.3
2020-Jul-07 13:03 081 12.8
2020-Jul-07 12:58 081 0 gusting 1 13.3
2020-Jul-07 12:53 081 13.3
2020-Jul-07 12:48 081 13.3
2020-Jul-07 12:43 081 13.3
2020-Jul-07 12:38 081 13.3
2020-Jul-07 12:33 081 13.3
2020-Jul-07 12:28 081 13.3
2020-Jul-07 12:23 081 13.3
2020-Jul-07 12:18 081 13.3
2020-Jul-07 12:13 081 13.3
2020-Jul-07 12:08 081 13.3
2020-Jul-07 12:03 081 13.3
2020-Jul-07 11:58 081 13.3
2020-Jul-07 11:53 081 13.3
2020-Jul-07 11:48 081 13.3
2020-Jul-07 11:43 081 13.3
2020-Jul-07 11:33 081 13.3
2020-Jul-07 11:28 081 13.3
2020-Jul-07 11:23 081 13.3
2020-Jul-07 11:13 081 13.9
2020-Jul-07 11:08 081 13.9
2020-Jul-07 11:03 081 0 gusting 2 13.9
2020-Jul-07 10:58 077 13.9
2020-Jul-07 10:53 077 13.9
2020-Jul-07 10:48 077 13.9
2020-Jul-07 10:43 080 14.4
2020-Jul-07 10:38 088 2 gusting 4 14.4
2020-Jul-07 10:33 085 2 gusting 4 15.0
2020-Jul-07 10:28 076 1 gusting 5 15.0
2020-Jul-07 10:18 268 15.0
2020-Jul-07 10:13 268 15.6
2020-Jul-07 10:08 179 15.6
2020-Jul-07 10:03 111 15.6
2020-Jul-07 09:58 139 15.6
2020-Jul-07 09:53 116 15.6
2020-Jul-07 09:48 116 15.6
2020-Jul-07 09:43 100 16.1
2020-Jul-07 09:38 089 16.1
2020-Jul-07 09:33 089 16.1
2020-Jul-07 09:28 087 16.1
2020-Jul-07 09:23 087 16.1
2020-Jul-07 09:18 087 16.1
2020-Jul-07 09:13 087 16.1
2020-Jul-07 09:08 087 16.1
2020-Jul-07 09:03 087 16.1
2020-Jul-07 08:58 087 16.1
2020-Jul-07 08:53 087 16.1
2020-Jul-07 08:48 087 16.1
2020-Jul-07 08:43 069 16.1
2020-Jul-07 08:38 069 0 gusting 2 16.1
2020-Jul-07 08:33 068 16.1
2020-Jul-07 08:28 081 16.1
2020-Jul-07 08:23 081 16.1
2020-Jul-07 08:18 081 16.1
2020-Jul-07 08:13 081 0 gusting 3 16.1
2020-Jul-07 08:08 075 16.1
2020-Jul-07 08:03 074 16.1
2020-Jul-07 07:58 074 16.1
2020-Jul-07 07:48 074 16.1
2020-Jul-07 07:43 074 16.1
2020-Jul-07 07:38 074 16.1
2020-Jul-07 07:33 074 16.1
2020-Jul-07 07:28 074 16.7
2020-Jul-07 07:18 074 16.7
2020-Jul-07 07:13 075 16.7
2020-Jul-07 07:08 074 16.7
2020-Jul-07 07:03 074 16.7
2020-Jul-07 06:58 074 16.7
2020-Jul-07 06:53 075 16.7
2020-Jul-07 06:48 089 16.7
2020-Jul-07 06:43 073 16.7
2020-Jul-07 06:38 073 16.7
2020-Jul-07 06:33 070 16.7
2020-Jul-07 06:28 070 16.7
2020-Jul-07 06:23 070 16.7
2020-Jul-07 06:18 070 16.7
2020-Jul-07 06:13 070 16.7
2020-Jul-07 06:08 070 16.7
2020-Jul-07 06:03 070 16.7
2020-Jul-07 05:58 070 16.7
2020-Jul-07 05:53 260 16.7
2020-Jul-07 05:48 260 16.7
2020-Jul-07 05:43 260 16.7
2020-Jul-07 05:38 260 16.7
2020-Jul-07 05:33 260 16.1
2020-Jul-07 05:28 260 16.1
2020-Jul-07 05:23 260 16.7
2020-Jul-07 05:18 260 16.7
2020-Jul-07 05:13 260 16.7
2020-Jul-07 05:08 260 16.7
2020-Jul-07 05:03 260 16.7
2020-Jul-07 04:58 260 16.7
2020-Jul-07 04:53 260 16.7
2020-Jul-07 04:48 260 16.7
2020-Jul-07 04:43 260 17.2
2020-Jul-07 04:38 260 17.2
2020-Jul-07 04:33 260 17.2
2020-Jul-07 04:28 260 17.2
2020-Jul-07 04:23 260 17.2
2020-Jul-07 04:18 260 17.8
2020-Jul-07 04:13 260 17.8
2020-Jul-07 04:03 260 17.8
2020-Jul-07 03:58 260 17.8
2020-Jul-07 03:53 260 17.8
2020-Jul-07 03:48 260 18.3
2020-Jul-07 03:43 260 18.3
2020-Jul-07 03:38 260 18.3
2020-Jul-07 03:33 263 18.3
2020-Jul-07 03:28 237 18.3
2020-Jul-07 03:23 237 18.3
2020-Jul-07 03:18 189 1 gusting 3 18.3
2020-Jul-07 03:13 254 0 gusting 5 18.3
2020-Jul-07 03:08 213 0 gusting 5 18.9
2020-Jul-07 03:03 239 0 gusting 4 18.9
2020-Jul-07 02:58 197 1 gusting 4 18.9
2020-Jul-07 02:53 218 1 gusting 3 18.9
2020-Jul-07 02:48 230 0 gusting 2 18.9
2020-Jul-07 02:43 241 18.9
2020-Jul-07 02:38 241 0 gusting 6 18.9
2020-Jul-07 02:33 269 1 gusting 6 18.9
2020-Jul-07 02:28 252 0 gusting 3 18.9
2020-Jul-07 02:18 160 0 gusting 5 18.9
2020-Jul-07 02:13 198 0 gusting 3 19.4
2020-Jul-07 02:08 199 0 gusting 4 19.4
2020-Jul-07 02:03 241 0 gusting 4 19.4
2020-Jul-07 01:58 246 1 gusting 4 20.0
2020-Jul-07 01:53 228 0 gusting 6 20.0
2020-Jul-07 01:48 222 0 gusting 6 20.0
2020-Jul-07 01:43 181 1 gusting 6 20.6
2020-Jul-07 01:38 207 2 gusting 6 20.0
2020-Jul-07 01:33 204 2 gusting 5 20.6
2020-Jul-07 01:28 204 0 gusting 5 21.1
2020-Jul-07 01:23 239 0 gusting 6 21.1
2020-Jul-07 01:18 156 2 gusting 6 20.6
2020-Jul-07 01:13 235 3 gusting 6 20.6
2020-Jul-07 01:08 235 2 gusting 4 21.1
2020-Jul-07 01:03 190 2 gusting 5 21.1
2020-Jul-07 00:58 207 0 gusting 3 21.7
2020-Jul-07 00:43 140 1 gusting 3 21.7
2020-Jul-07 00:38 218 0 gusting 4 21.1
2020-Jul-07 00:33 245 1 gusting 4 21.1
2020-Jul-07 00:28 231 0 gusting 4 21.1
2020-Jul-07 00:23 254 2 gusting 4 21.1
2020-Jul-07 00:18 133 21.1
2020-Jul-07 00:13 151 1 gusting 3 21.1
2020-Jul-07 00:03 234 1 gusting 4 20.0
2020-Jul-06 23:58 236 2 gusting 4 20.6
2020-Jul-06 23:53 195 0 gusting 4 20.6
2020-Jul-06 23:48 187 0 gusting 6 20.0
2020-Jul-06 23:43 243 2 gusting 6 20.0
2020-Jul-06 23:38 188 20.0
2020-Jul-06 23:28 237 0 gusting 4 18.9
2020-Jul-06 23:23 198 1 gusting 5 18.9
2020-Jul-06 23:18 202 1 gusting 5 19.4
2020-Jul-06 23:13 212 19.4
2020-Jul-06 23:08 233 19.4
2020-Jul-06 23:03 206 19.4
2020-Jul-06 22:58 234 2 gusting 5 19.4
2020-Jul-06 22:48 227 1 gusting 3 19.4
2020-Jul-06 22:43 191 1 gusting 4 18.9
2020-Jul-06 22:38 239 0 gusting 6 18.9
2020-Jul-06 22:33 214 2 gusting 6 18.9
2020-Jul-06 22:28 194 1 gusting 6 18.9
2020-Jul-06 22:23 250 0 gusting 6 18.9
2020-Jul-06 22:18 162 1 gusting 6 18.9
2020-Jul-06 22:13 203 2 gusting 6 19.4
2020-Jul-06 22:08 183 2 gusting 6 19.4
2020-Jul-06 22:03 230 2 gusting 6 19.4
2020-Jul-06 21:58 180 2 gusting 6 20.0
2020-Jul-06 21:53 224 2 gusting 6 20.0
2020-Jul-06 21:48 210 2 gusting 6 20.0
2020-Jul-06 21:43 185 2 gusting 6 20.0
2020-Jul-06 21:38 217 3 gusting 9 20.6
2020-Jul-06 21:33 252 3 gusting 9 20.0
2020-Jul-06 21:23 254 2 gusting 7 20.6
2020-Jul-06 21:18 207 3 gusting 6 20.6
2020-Jul-06 21:13 133 1 gusting 6 20.6
2020-Jul-06 21:08 181 4 gusting 7 20.0
2020-Jul-06 21:03 241 3 gusting 6 20.6
2020-Jul-06 20:58 240 1 gusting 6 20.6
2020-Jul-06 20:53 189 2 gusting 8 20.6
2020-Jul-06 20:48 238 3 gusting 8 20.6
2020-Jul-06 20:43 164 1 gusting 6 21.1
2020-Jul-06 20:38 265 2 gusting 5 20.6
2020-Jul-06 20:33 272 0 gusting 6 20.6
2020-Jul-06 20:23 228 3 gusting 7 20.0
2020-Jul-06 20:18 205 0 gusting 6 20.6
2020-Jul-06 20:13 222 1 gusting 6 20.0
2020-Jul-06 20:08 179 0 gusting 6 20.6
2020-Jul-06 20:03 202 1 gusting 9 20.0
2020-Jul-06 19:58 166 3 gusting 9 19.4
2020-Jul-06 19:53 185 3 gusting 6 18.9
2020-Jul-06 19:48 251 1 gusting 5 18.9
2020-Jul-06 19:43 203 1 gusting 7 18.9
2020-Jul-06 19:38 262 2 gusting 7 18.9
2020-Jul-06 19:33 231 2 gusting 6 18.9
2020-Jul-06 19:28 246 1 gusting 6 18.9
2020-Jul-06 19:23 212 3 gusting 6 19.4
2020-Jul-06 19:18 219 2 gusting 5 20.0
2020-Jul-06 19:13 246 1 gusting 5 20.0
2020-Jul-06 19:08 196 0 gusting 5 20.0
2020-Jul-06 19:03 221 1 gusting 4 19.4
2020-Jul-06 18:58 210 2 gusting 3 19.4
2020-Jul-06 18:53 242 0 gusting 3 19.4
2020-Jul-06 18:48 236 0 gusting 2 19.4
2020-Jul-06 18:43 185 18.9
2020-Jul-06 18:33 185 18.9
2020-Jul-06 18:28 182 18.9
2020-Jul-06 18:23 182 0 gusting 4 18.3
2020-Jul-06 18:18 162 0 gusting 4 18.3
2020-Jul-06 18:13 074 0 gusting 3 18.3
2020-Jul-06 18:08 159 0 gusting 4 18.9
2020-Jul-06 18:03 144 1 gusting 6 18.9
2020-Jul-06 17:58 216 0 gusting 6 18.9
2020-Jul-06 17:53 085 4 gusting 6 18.9
2020-Jul-06 17:48 074 0 gusting 5 18.3
2020-Jul-06 17:43 126 0 gusting 3 18.9
2020-Jul-06 17:38 091 1 gusting 5 18.9
2020-Jul-06 17:33 122 1 gusting 5 18.9
2020-Jul-06 17:28 100 18.9
2020-Jul-06 17:23 131 0 gusting 3 18.3
2020-Jul-06 17:18 093 0 gusting 3 18.3
2020-Jul-06 17:13 095 0 gusting 3 17.8
2020-Jul-06 17:08 154 17.8
2020-Jul-06 17:03 120 0 gusting 2 17.8
2020-Jul-06 16:58 098 0 gusting 3 17.8
2020-Jul-06 16:48 111 0 gusting 5 18.3
2020-Jul-06 16:43 205 0 gusting 5 18.3
2020-Jul-06 16:38 087 1 gusting 4 17.8
2020-Jul-06 16:33 099 0 gusting 5 17.8
2020-Jul-06 16:28 082 0 gusting 5 17.2
2020-Jul-06 16:23 103 0 gusting 4 16.7
2020-Jul-06 16:18 069 1 gusting 6 16.7
2020-Jul-06 16:13 088 2 gusting 6 16.7
2020-Jul-06 16:08 083 1 gusting 5 16.7
2020-Jul-06 16:03 090 0 gusting 5 16.7
2020-Jul-06 15:58 093 1 gusting 5 16.1
2020-Jul-06 15:53 086 1 gusting 3 16.1
2020-Jul-06 15:48 072 0 gusting 3 16.1
2020-Jul-06 15:43 082 0 gusting 4 16.1
2020-Jul-06 15:38 072 1 gusting 5 16.1
2020-Jul-06 15:33 095 1 gusting 3 16.1
2020-Jul-06 15:28 097 16.1
2020-Jul-06 15:23 089 0 gusting 3 16.1
2020-Jul-06 15:18 178 0 gusting 3 16.1
2020-Jul-06 15:13 089 0 gusting 4 15.6
2020-Jul-06 15:08 084 0 gusting 5 15.6
2020-Jul-06 15:03 085 0 gusting 3 15.0
2020-Jul-06 14:58 083 1 gusting 3 15.0
2020-Jul-06 14:53 101 0 gusting 3 15.0
2020-Jul-06 14:48 155 14.4
2020-Jul-06 14:43 158 0 gusting 1 13.9
2020-Jul-06 14:38 079 13.9
2020-Jul-06 14:33 079 13.9
2020-Jul-06 14:28 079 13.9
2020-Jul-06 14:23 079 13.9
2020-Jul-06 14:18 079 13.3
2020-Jul-06 14:13 079 13.3
2020-Jul-06 14:08 079 0 gusting 2 13.3
2020-Jul-06 14:03 079 13.3
2020-Jul-06 13:58 079 12.8
2020-Jul-06 13:53 079 1 gusting 2 12.8
2020-Jul-06 13:48 153 12.2
2020-Jul-06 13:43 270 12.2
2020-Jul-06 13:38 270 12.2
2020-Jul-06 13:33 270 12.2
2020-Jul-06 13:28 270 12.2
2020-Jul-06 13:23 270 11.7
2020-Jul-06 13:18 270 11.7
2020-Jul-06 13:13 270 11.7
2020-Jul-06 13:08 270 11.7
2020-Jul-06 13:03 270 11.7
2020-Jul-06 12:58 270 11.7
2020-Jul-06 12:53 270 11.7
2020-Jul-06 12:48 270 11.7
2020-Jul-06 12:43 270 11.7
2020-Jul-06 12:38 270 11.7
2020-Jul-06 12:33 270 11.7
2020-Jul-06 12:28 270 11.7
2020-Jul-06 12:23 270 11.7
2020-Jul-06 12:18 270 11.7
2020-Jul-06 12:13 270 11.7
2020-Jul-06 12:08 270 11.7
2020-Jul-06 12:03 270 11.7
2020-Jul-06 11:58 270 11.7
2020-Jul-06 11:48 270 11.7
2020-Jul-06 11:43 270 11.7
2020-Jul-06 11:38 270 11.7
2020-Jul-06 11:33 270 284 gusting 284 11.7
2020-Jul-06 11:28 270 11.7
2020-Jul-06 11:23 270 11.7
2020-Jul-06 11:18 270 11.7
2020-Jul-06 11:13 270 11.7
2020-Jul-06 11:08 270 11.7
2020-Jul-06 11:03 270 11.7
2020-Jul-06 10:58 270 11.7
2020-Jul-06 10:53 270 11.7
2020-Jul-06 10:48 270 11.7
2020-Jul-06 10:43 270 11.7
2020-Jul-06 10:38 270 11.7
2020-Jul-06 10:33 270 11.7
2020-Jul-06 10:28 270 11.7
2020-Jul-06 10:18 270 12.2
2020-Jul-06 10:13 270 12.2
2020-Jul-06 10:08 270 12.2
2020-Jul-06 10:03 270 12.2
2020-Jul-06 09:58 270 12.2
2020-Jul-06 09:53 270 12.2
2020-Jul-06 09:48 270 12.2
2020-Jul-06 09:43 270 12.2
2020-Jul-06 09:38 270 12.2
2020-Jul-06 09:33 270 12.2
2020-Jul-06 09:28 270 12.2
2020-Jul-06 09:18 270 12.8
2020-Jul-06 09:13 270 12.8
2020-Jul-06 09:08 270 12.8
2020-Jul-06 09:03 270 12.8
2020-Jul-06 08:58 270 12.8
2020-Jul-06 08:53 270 12.8
2020-Jul-06 08:48 270 12.8
2020-Jul-06 08:43 270 12.8
2020-Jul-06 08:38 270 12.8
2020-Jul-06 08:33 270 13.3
2020-Jul-06 08:28 270 13.3
2020-Jul-06 08:23 270 13.3
2020-Jul-06 08:18 270 13.3
2020-Jul-06 08:13 270 13.3
2020-Jul-06 08:08 270 13.3
2020-Jul-06 08:03 270 13.3
2020-Jul-06 07:58 270 13.3
2020-Jul-06 07:53 270 13.9
2020-Jul-06 07:48 270 13.9
2020-Jul-06 07:43 270 13.9
2020-Jul-06 07:38 270 13.9
2020-Jul-06 07:33 270 13.9
2020-Jul-06 07:28 270 13.9
2020-Jul-06 07:23 270 13.9
2020-Jul-06 07:18 270 13.9
2020-Jul-06 07:13 270 14.4
2020-Jul-06 07:08 270 14.4
2020-Jul-06 07:03 270 14.4
2020-Jul-06 06:58 270 14.4
2020-Jul-06 06:53 270 14.4
2020-Jul-06 06:48 270 14.4
2020-Jul-06 06:43 270 15.0
2020-Jul-06 06:38 270 15.0
2020-Jul-06 06:33 270 15.0
2020-Jul-06 06:28 270 15.0
2020-Jul-06 06:23 270 15.6
2020-Jul-06 06:18 270 15.6
2020-Jul-06 06:13 270 15.6
2020-Jul-06 06:08 270 15.6
2020-Jul-06 06:03 270 16.1
2020-Jul-06 05:53 270 16.1
2020-Jul-06 05:48 270 16.1
2020-Jul-06 05:43 270 16.7
2020-Jul-06 05:38 270 16.7
2020-Jul-06 05:33 270 16.7
2020-Jul-06 05:28 270 16.7
2020-Jul-06 05:23 270 16.7
2020-Jul-06 05:18 270 17.2
2020-Jul-06 05:13 270 17.2
2020-Jul-06 05:08 270 17.2
2020-Jul-06 05:03 270 17.8
2020-Jul-06 04:58 270 17.8
2020-Jul-06 04:53 270 17.8
2020-Jul-06 04:48 270 17.8
2020-Jul-06 04:43 270 18.3
2020-Jul-06 04:38 270 18.3
2020-Jul-06 04:33 270 18.3
2020-Jul-06 04:28 270 18.9
2020-Jul-06 04:23 270 18.9
2020-Jul-06 04:18 270 18.9
2020-Jul-06 04:13 220 0 gusting 4 19.4
2020-Jul-06 04:08 216 19.4
2020-Jul-06 04:03 222 19.4